MMAS/AGU METAR and TAF weather

Enter ICAO airport designator
Station Type Date Time Source
MMAS METAR 2021/10/24 22:43 UTC NOAA

MMAS 242243Z 20004KT 10SM FEW040 OVC230 25/09 A3015 RMK 8/107


Station Type Date Time Source
MMAS Decoded METAR 2021/10/24 22:43 UTC NOAA

Aguascalientes, Ags., Mexico (MMAS) 21-53N 102-18W
Oct 24, 2021 - 06:43 PM EDT / 2021.10.24 2243 UTC
Wind: from the SSW (200 degrees) at 5 MPH (4 KT):0
Visibility: 10 mile(s):0
Sky conditions: overcast
Temperature: 77 F (25 C)
Dew Point: 48 F (9 C)
Relative Humidity: 36%
Pressure (altimeter): 30.15 in. Hg (1020 hPa)
ob: MMAS 242243Z 20004KT 10SM FEW040 OVC230 25/09 A3015 RMK 8/107
cycle: 22

Station Type Date Time Source
MMAS TAF 2021/10/24 18:56 UTC NOAA

TAF MMAS 241649Z 2418/2518 10010KT P6SM BKN200
FM250000 10005KT P6SM OVC200
BECMG 2517/2518 16010KT

Example: see airport list